sensor_id;sensor_type;location;lat;lon;timestamp;temperature;humidity
13186;DHT22;6658;53.080;7.428;2023-09-08T00:01:00;18.50;99.90
13186;DHT22;6658;53.080;7.428;2023-09-08T00:03:25;18.40;99.90
13186;DHT22;6658;53.080;7.428;2023-09-08T00:05:51;18.40;99.90
13186;DHT22;6658;53.080;7.428;2023-09-08T00:08:17;18.40;99.90
13186;DHT22;6658;53.080;7.428;2023-09-08T00:10:42;18.40;99.90
13186;DHT22;6658;53.080;7.428;2023-09-08T00:13:08;18.30;99.90
13186;DHT22;6658;53.080;7.428;2023-09-08T00:15:34;18.30;99.90
13186;DHT22;6658;53.080;7.428;2023-09-08T00:18:01;18.30;99.90
13186;DHT22;6658;53.080;7.428;2023-09-08T00:20:26;18.30;99.90
13186;DHT22;6658;53.080;7.428;2023-09-08T00:22:52;18.30;99.90
13186;DHT22;6658;53.080;7.428;2023-09-08T00:25:18;18.20;99.90
13186;DHT22;6658;53.080;7.428;2023-09-08T00:27:44;18.20;99.90
13186;DHT22;6658;53.080;7.428;2023-09-08T00:30:10;18.10;99.90
13186;DHT22;6658;53.080;7.428;2023-09-08T00:32:36;18.00;99.90
13186;DHT22;6658;53.080;7.428;2023-09-08T00:35:01;18.00;99.90
13186;DHT22;6658;53.080;7.428;2023-09-08T00:37:27;17.90;99.90
13186;DHT22;6658;53.080;7.428;2023-09-08T00:39:53;17.80;99.90
13186;DHT22;6658;53.080;7.428;2023-09-08T00:42:18;17.60;99.90
13186;DHT22;6658;53.080;7.428;2023-09-08T00:44:44;17.60;99.90
13186;DHT22;6658;53.080;7.428;2023-09-08T00:47:10;17.50;99.90
13186;DHT22;6658;53.080;7.428;2023-09-08T00:49:35;17.50;99.90
13186;DHT22;6658;53.080;7.428;2023-09-08T00:52:01;17.40;99.90
13186;DHT22;6658;53.080;7.428;2023-09-08T00:54:27;17.40;99.90
13186;DHT22;6658;53.080;7.428;2023-09-08T00:56:55;17.40;99.90
13186;DHT22;6658;53.080;7.428;2023-09-08T00:59:22;17.40;99.90
13186;DHT22;6658;53.080;7.428;2023-09-08T01:01:48;17.40;99.90
13186;DHT22;6658;53.080;7.428;2023-09-08T01:04:14;17.40;99.90
13186;DHT22;6658;53.080;7.428;2023-09-08T01:06:40;17.30;99.90
13186;DHT22;6658;53.080;7.428;2023-09-08T01:09:07;17.30;99.90
13186;DHT22;6658;53.080;7.428;2023-09-08T01:11:34;17.20;99.90
13186;DHT22;6658;53.080;7.428;2023-09-08T01:13:59;17.10;99.90
13186;DHT22;6658;53.080;7.428;2023-09-08T01:16:25;17.10;99.90
13186;DHT22;6658;53.080;7.428;2023-09-08T01:18:51;17.00;99.90
13186;DHT22;6658;53.080;7.428;2023-09-08T01:26:40;17.20;99.90
13186;DHT22;6658;53.080;7.428;2023-09-08T01:29:07;17.10;99.90
13186;DHT22;6658;53.080;7.428;2023-09-08T01:31:33;17.10;99.90
13186;DHT22;6658;53.080;7.428;2023-09-08T01:34:00;17.20;99.90
13186;DHT22;6658;53.080;7.428;2023-09-08T01:36:27;17.20;99.90
13186;DHT22;6658;53.080;7.428;2023-09-08T01:38:52;17.10;99.90
13186;DHT22;6658;53.080;7.428;2023-09-08T01:41:18;17.10;99.90
13186;DHT22;6658;53.080;7.428;2023-09-08T01:43:44;17.10;99.90
13186;DHT22;6658;53.080;7.428;2023-09-08T01:46:09;17.00;99.90
13186;DHT22;6658;53.080;7.428;2023-09-08T01:48:35;17.00;99.90
13186;DHT22;6658;53.080;7.428;2023-09-08T01:51:01;17.00;99.90
13186;DHT22;6658;53.080;7.428;2023-09-08T01:53:26;17.00;99.90
13186;DHT22;6658;53.080;7.428;2023-09-08T01:55:52;17.00;99.90
13186;DHT22;6658;53.080;7.428;2023-09-08T01:58:17;17.00;99.90
13186;DHT22;6658;53.080;7.428;2023-09-08T02:00:47;17.00;99.90
13186;DHT22;6658;53.080;7.428;2023-09-08T02:03:13;17.00;99.90
13186;DHT22;6658;53.080;7.428;2023-09-08T02:05:39;17.00;99.90
13186;DHT22;6658;53.080;7.428;2023-09-08T02:08:05;16.90;99.90
13186;DHT22;6658;53.080;7.428;2023-09-08T02:10:31;16.90;99.90
13186;DHT22;6658;53.080;7.428;2023-09-08T02:12:57;17.00;99.90
13186;DHT22;6658;53.080;7.428;2023-09-08T02:15:23;16.90;99.90
13186;DHT22;6658;53.080;7.428;2023-09-08T02:17:57;16.80;99.90
13186;DHT22;6658;53.080;7.428;2023-09-08T02:20:23;16.80;99.90
13186;DHT22;6658;53.080;7.428;2023-09-08T02:22:54;16.70;99.90
13186;DHT22;6658;53.080;7.428;2023-09-08T02:25:20;16.70;99.90
13186;DHT22;6658;53.080;7.428;2023-09-08T02:27:45;16.60;99.90
13186;DHT22;6658;53.080;7.428;2023-09-08T02:30:11;16.60;99.90
13186;DHT22;6658;53.080;7.428;2023-09-08T02:32:37;16.50;99.90
13186;DHT22;6658;53.080;7.428;2023-09-08T02:35:03;16.40;99.90
13186;DHT22;6658;53.080;7.428;2023-09-08T02:37:28;16.40;99.90
13186;DHT22;6658;53.080;7.428;2023-09-08T02:39:54;16.30;99.90
13186;DHT22;6658;53.080;7.428;2023-09-08T02:42:20;16.20;99.90
13186;DHT22;6658;53.080;7.428;2023-09-08T02:44:45;16.10;99.90
13186;DHT22;6658;53.080;7.428;2023-09-08T02:47:11;16.10;99.90
13186;DHT22;6658;53.080;7.428;2023-09-08T02:49:37;16.00;99.90
13186;DHT22;6658;53.080;7.428;2023-09-08T02:52:03;16.00;99.90
13186;DHT22;6658;53.080;7.428;2023-09-08T02:54:29;15.90;99.90
13186;DHT22;6658;53.080;7.428;2023-09-08T02:56:55;15.90;99.90
13186;DHT22;6658;53.080;7.428;2023-09-08T02:59:20;15.90;99.90
13186;DHT22;6658;53.080;7.428;2023-09-08T03:01:46;15.90;99.90
13186;DHT22;6658;53.080;7.428;2023-09-08T03:04:12;15.80;99.90
13186;DHT22;6658;53.080;7.428;2023-09-08T03:06:37;15.80;99.90
13186;DHT22;6658;53.080;7.428;2023-09-08T03:09:03;15.80;99.90
13186;DHT22;6658;53.080;7.428;2023-09-08T03:11:29;15.80;99.90
13186;DHT22;6658;53.080;7.428;2023-09-08T03:13:55;15.80;99.90
13186;DHT22;6658;53.080;7.428;2023-09-08T03:16:20;15.80;99.90
13186;DHT22;6658;53.080;7.428;2023-09-08T03:18:46;15.80;99.90
13186;DHT22;6658;53.080;7.428;2023-09-08T03:21:14;15.80;99.90
13186;DHT22;6658;53.080;7.428;2023-09-08T03:23:41;15.70;99.90
13186;DHT22;6658;53.080;7.428;2023-09-08T03:26:08;15.70;99.90
13186;DHT22;6658;53.080;7.428;2023-09-08T03:28:35;15.70;99.90
13186;DHT22;6658;53.080;7.428;2023-09-08T03:31:04;15.70;99.90
13186;DHT22;6658;53.080;7.428;2023-09-08T03:33:30;15.60;99.90
13186;DHT22;6658;53.080;7.428;2023-09-08T03:35:56;15.60;99.90
13186;DHT22;6658;53.080;7.428;2023-09-08T03:38:22;15.60;99.90
13186;DHT22;6658;53.080;7.428;2023-09-08T03:40:48;15.50;99.90
13186;DHT22;6658;53.080;7.428;2023-09-08T03:43:14;15.50;99.90
13186;DHT22;6658;53.080;7.428;2023-09-08T03:45:40;15.40;99.90
13186;DHT22;6658;53.080;7.428;2023-09-08T03:48:06;15.40;99.90
13186;DHT22;6658;53.080;7.428;2023-09-08T03:50:32;15.40;99.90
13186;DHT22;6658;53.080;7.428;2023-09-08T03:52:58;15.40;99.90
13186;DHT22;6658;53.080;7.428;2023-09-08T03:55:24;15.40;99.90
13186;DHT22;6658;53.080;7.428;2023-09-08T03:57:49;15.40;99.90
13186;DHT22;6658;53.080;7.428;2023-09-08T04:00:15;15.30;99.90
13186;DHT22;6658;53.080;7.428;2023-09-08T04:02:46;15.30;99.90
13186;DHT22;6658;53.080;7.428;2023-09-08T04:05:12;15.30;99.90
13186;DHT22;6658;53.080;7.428;2023-09-08T04:07:37;15.30;99.90
13186;DHT22;6658;53.080;7.428;2023-09-08T04:10:03;15.30;99.90
13186;DHT22;6658;53.080;7.428;2023-09-08T04:12:29;15.30;99.90
13186;DHT22;6658;53.080;7.428;2023-09-08T04:14:55;15.30;99.90
13186;DHT22;6658;53.080;7.428;2023-09-08T04:17:20;15.30;99.90
13186;DHT22;6658;53.080;7.428;2023-09-08T04:19:46;15.30;99.90
13186;DHT22;6658;53.080;7.428;2023-09-08T04:22:12;15.20;99.90
13186;DHT22;6658;53.080;7.428;2023-09-08T04:24:37;15.20;99.90
13186;DHT22;6658;53.080;7.428;2023-09-08T04:27:03;15.20;99.90
13186;DHT22;6658;53.080;7.428;2023-09-08T04:29:29;15.20;99.90
13186;DHT22;6658;53.080;7.428;2023-09-08T04:31:55;15.10;99.90
13186;DHT22;6658;53.080;7.428;2023-09-08T04:34:21;15.10;99.90
13186;DHT22;6658;53.080;7.428;2023-09-08T04:36:46;15.10;99.90
13186;DHT22;6658;53.080;7.428;2023-09-08T04:39:12;15.00;99.90
13186;DHT22;6658;53.080;7.428;2023-09-08T04:41:40;15.00;99.90
13186;DHT22;6658;53.080;7.428;2023-09-08T04:44:06;15.00;99.90
13186;DHT22;6658;53.080;7.428;2023-09-08T04:46:32;14.90;99.90
13186;DHT22;6658;53.080;7.428;2023-09-08T04:48:57;14.90;99.90
13186;DHT22;6658;53.080;7.428;2023-09-08T04:51:24;15.00;99.90
13186;DHT22;6658;53.080;7.428;2023-09-08T04:53:50;15.00;99.90
13186;DHT22;6658;53.080;7.428;2023-09-08T04:56:15;14.90;99.90
13186;DHT22;6658;53.080;7.428;2023-09-08T04:58:41;15.00;99.90
13186;DHT22;6658;53.080;7.428;2023-09-08T05:01:07;15.00;99.90
13186;DHT22;6658;53.080;7.428;2023-09-08T05:03:32;15.00;99.90
13186;DHT22;6658;53.080;7.428;2023-09-08T05:05:58;15.00;99.90
13186;DHT22;6658;53.080;7.428;2023-09-08T05:08:24;15.00;99.90
13186;DHT22;6658;53.080;7.428;2023-09-08T05:10:49;15.00;99.90
13186;DHT22;6658;53.080;7.428;2023-09-08T05:13:16;15.00;99.90
13186;DHT22;6658;53.080;7.428;2023-09-08T05:15:42;15.10;99.90
13186;DHT22;6658;53.080;7.428;2023-09-08T05:18:09;15.20;99.90
13186;DHT22;6658;53.080;7.428;2023-09-08T05:20:35;15.20;99.90
13186;DHT22;6658;53.080;7.428;2023-09-08T05:23:00;15.30;99.90
13186;DHT22;6658;53.080;7.428;2023-09-08T05:25:26;15.40;99.90
13186;DHT22;6658;53.080;7.428;2023-09-08T05:27:52;15.60;99.90
13186;DHT22;6658;53.080;7.428;2023-09-08T05:30:18;15.80;99.90
13186;DHT22;6658;53.080;7.428;2023-09-08T05:32:44;15.90;99.90
13186;DHT22;6658;53.080;7.428;2023-09-08T05:35:09;16.00;99.90
13186;DHT22;6658;53.080;7.428;2023-09-08T05:37:35;16.00;99.90
13186;DHT22;6658;53.080;7.428;2023-09-08T05:40:01;16.10;99.90
13186;DHT22;6658;53.080;7.428;2023-09-08T05:42:27;16.10;99.90
13186;DHT22;6658;53.080;7.428;2023-09-08T05:44:52;16.20;99.90
13186;DHT22;6658;53.080;7.428;2023-09-08T05:47:20;16.20;99.90
13186;DHT22;6658;53.080;7.428;2023-09-08T05:49:46;16.30;99.90
13186;DHT22;6658;53.080;7.428;2023-09-08T05:52:11;16.30;99.90
13186;DHT22;6658;53.080;7.428;2023-09-08T05:54:37;16.40;99.90
13186;DHT22;6658;53.080;7.428;2023-09-08T05:57:03;16.40;99.90
13186;DHT22;6658;53.080;7.428;2023-09-08T05:59:28;16.50;99.90
13186;DHT22;6658;53.080;7.428;2023-09-08T06:01:54;16.50;99.90
13186;DHT22;6658;53.080;7.428;2023-09-08T06:04:20;16.60;99.90
13186;DHT22;6658;53.080;7.428;2023-09-08T06:06:45;16.60;99.90
13186;DHT22;6658;53.080;7.428;2023-09-08T06:09:11;16.70;99.90
13186;DHT22;6658;53.080;7.428;2023-09-08T06:11:37;16.70;99.90
13186;DHT22;6658;53.080;7.428;2023-09-08T06:14:03;16.80;99.90
13186;DHT22;6658;53.080;7.428;2023-09-08T06:16:29;16.80;99.90
13186;DHT22;6658;53.080;7.428;2023-09-08T06:18:54;16.90;99.90
13186;DHT22;6658;53.080;7.428;2023-09-08T06:21:20;17.00;99.90
13186;DHT22;6658;53.080;7.428;2023-09-08T06:23:46;17.10;99.90
13186;DHT22;6658;53.080;7.428;2023-09-08T06:26:12;17.20;99.90
13186;DHT22;6658;53.080;7.428;2023-09-08T06:28:38;17.30;99.90
13186;DHT22;6658;53.080;7.428;2023-09-08T06:31:07;17.50;99.90
13186;DHT22;6658;53.080;7.428;2023-09-08T06:33:32;17.70;99.90
13186;DHT22;6658;53.080;7.428;2023-09-08T06:35:58;18.10;99.90
13186;DHT22;6658;53.080;7.428;2023-09-08T06:38:24;18.50;99.90
13186;DHT22;6658;53.080;7.428;2023-09-08T06:40:49;18.90;99.90
13186;DHT22;6658;53.080;7.428;2023-09-08T06:43:18;19.20;99.90
13186;DHT22;6658;53.080;7.428;2023-09-08T06:45:47;19.30;99.90
13186;DHT22;6658;53.080;7.428;2023-09-08T06:48:14;19.60;99.90
13186;DHT22;6658;53.080;7.428;2023-09-08T06:50:40;19.90;99.90
13186;DHT22;6658;53.080;7.428;2023-09-08T06:53:06;20.00;99.90
13186;DHT22;6658;53.080;7.428;2023-09-08T06:55:32;20.20;99.90
13186;DHT22;6658;53.080;7.428;2023-09-08T06:57:58;20.50;99.90
13186;DHT22;6658;53.080;7.428;2023-09-08T07:00:24;20.70;99.90
13186;DHT22;6658;53.080;7.428;2023-09-08T07:02:50;20.90;99.90
13186;DHT22;6658;53.080;7.428;2023-09-08T07:05:16;21.10;99.90
13186;DHT22;6658;53.080;7.428;2023-09-08T07:07:42;21.20;99.90
13186;DHT22;6658;53.080;7.428;2023-09-08T07:10:08;21.50;99.90
13186;DHT22;6658;53.080;7.428;2023-09-08T07:12:34;21.90;99.90
13186;DHT22;6658;53.080;7.428;2023-09-08T07:15:00;21.90;99.90
13186;DHT22;6658;53.080;7.428;2023-09-08T07:17:26;22.10;99.90
13186;DHT22;6658;53.080;7.428;2023-09-08T07:19:52;22.20;99.90
13186;DHT22;6658;53.080;7.428;2023-09-08T07:22:18;22.50;99.90
13186;DHT22;6658;53.080;7.428;2023-09-08T07:24:44;22.70;99.90
13186;DHT22;6658;53.080;7.428;2023-09-08T07:27:10;23.00;99.90
13186;DHT22;6658;53.080;7.428;2023-09-08T07:29:39;23.40;99.90
13186;DHT22;6658;53.080;7.428;2023-09-08T07:32:05;23.60;99.90
13186;DHT22;6658;53.080;7.428;2023-09-08T07:34:30;23.50;99.90
13186;DHT22;6658;53.080;7.428;2023-09-08T07:36:56;23.50;99.90
13186;DHT22;6658;53.080;7.428;2023-09-08T07:39:22;23.70;99.90
13186;DHT22;6658;53.080;7.428;2023-09-08T07:41:47;23.70;99.90
13186;DHT22;6658;53.080;7.428;2023-09-08T07:44:13;23.70;99.90
13186;DHT22;6658;53.080;7.428;2023-09-08T07:46:39;23.90;99.90
13186;DHT22;6658;53.080;7.428;2023-09-08T07:49:04;24.00;99.90
13186;DHT22;6658;53.080;7.428;2023-09-08T07:51:30;24.20;99.90
13186;DHT22;6658;53.080;7.428;2023-09-08T07:53:56;24.40;99.90
13186;DHT22;6658;53.080;7.428;2023-09-08T07:56:22;24.80;99.90
13186;DHT22;6658;53.080;7.428;2023-09-08T07:58:48;25.40;99.90
13186;DHT22;6658;53.080;7.428;2023-09-08T08:01:14;25.90;99.90
13186;DHT22;6658;53.080;7.428;2023-09-08T08:03:41;26.40;99.90
13186;DHT22;6658;53.080;7.428;2023-09-08T08:06:06;26.80;99.90
13186;DHT22;6658;53.080;7.428;2023-09-08T08:08:33;26.80;99.90
13186;DHT22;6658;53.080;7.428;2023-09-08T08:11:17;26.60;99.90
13186;DHT22;6658;53.080;7.428;2023-09-08T08:13:46;26.80;99.90
13186;DHT22;6658;53.080;7.428;2023-09-08T08:16:12;27.00;99.90
13186;DHT22;6658;53.080;7.428;2023-09-08T08:18:37;27.40;99.90
13186;DHT22;6658;53.080;7.428;2023-09-08T08:21:03;27.60;99.90
13186;DHT22;6658;53.080;7.428;2023-09-08T08:23:30;27.60;99.90
13186;DHT22;6658;53.080;7.428;2023-09-08T08:25:56;28.00;99.90
13186;DHT22;6658;53.080;7.428;2023-09-08T08:28:22;28.30;99.90
13186;DHT22;6658;53.080;7.428;2023-09-08T08:30:49;28.90;99.90
13186;DHT22;6658;53.080;7.428;2023-09-08T08:33:14;28.80;99.90
13186;DHT22;6658;53.080;7.428;2023-09-08T08:35:40;29.30;99.90
13186;DHT22;6658;53.080;7.428;2023-09-08T08:38:06;29.50;99.90
13186;DHT22;6658;53.080;7.428;2023-09-08T08:40:32;30.20;99.90
13186;DHT22;6658;53.080;7.428;2023-09-08T08:42:59;30.10;99.90
13186;DHT22;6658;53.080;7.428;2023-09-08T08:45:26;29.90;99.90
13186;DHT22;6658;53.080;7.428;2023-09-08T08:47:53;30.20;99.90
13186;DHT22;6658;53.080;7.428;2023-09-08T08:50:19;30.10;99.90
13186;DHT22;6658;53.080;7.428;2023-09-08T08:52:46;30.10;99.90
13186;DHT22;6658;53.080;7.428;2023-09-08T08:55:12;30.60;99.90
13186;DHT22;6658;53.080;7.428;2023-09-08T08:57:40;30.90;99.90
13186;DHT22;6658;53.080;7.428;2023-09-08T09:00:11;31.40;99.90
13186;DHT22;6658;53.080;7.428;2023-09-08T09:02:39;31.20;99.90
13186;DHT22;6658;53.080;7.428;2023-09-08T09:05:09;31.90;99.90
13186;DHT22;6658;53.080;7.428;2023-09-08T09:07:36;32.70;99.90
13186;DHT22;6658;53.080;7.428;2023-09-08T09:10:04;33.30;98.30
13186;DHT22;6658;53.080;7.428;2023-09-08T09:12:29;33.50;96.60
13186;DHT22;6658;53.080;7.428;2023-09-08T09:14:58;33.90;96.30
13186;DHT22;6658;53.080;7.428;2023-09-08T09:17:24;34.40;96.00
13186;DHT22;6658;53.080;7.428;2023-09-08T09:19:49;35.10;94.80
13186;DHT22;6658;53.080;7.428;2023-09-08T09:22:20;35.70;92.20
13186;DHT22;6658;53.080;7.428;2023-09-08T09:24:48;36.10;90.90
13186;DHT22;6658;53.080;7.428;2023-09-08T09:27:13;36.40;88.90
13186;DHT22;6658;53.080;7.428;2023-09-08T09:29:47;36.40;87.50
13186;DHT22;6658;53.080;7.428;2023-09-08T09:32:14;36.20;88.50
13186;DHT22;6658;53.080;7.428;2023-09-08T09:34:53;36.80;86.10
13186;DHT22;6658;53.080;7.428;2023-09-08T09:37:20;36.90;84.30
13186;DHT22;6658;53.080;7.428;2023-09-08T09:39:53;36.90;85.30
13186;DHT22;6658;53.080;7.428;2023-09-08T09:42:20;37.50;82.20
13186;DHT22;6658;53.080;7.428;2023-09-08T09:44:51;38.00;81.10
13186;DHT22;6658;53.080;7.428;2023-09-08T09:47:17;38.10;78.00
13186;DHT22;6658;53.080;7.428;2023-09-08T09:49:44;37.50;76.70
13186;DHT22;6658;53.080;7.428;2023-09-08T09:52:22;37.30;81.30
13186;DHT22;6658;53.080;7.428;2023-09-08T09:54:58;38.00;79.00
13186;DHT22;6658;53.080;7.428;2023-09-08T09:57:23;38.70;75.70
13186;DHT22;6658;53.080;7.428;2023-09-08T09:59:51;38.40;73.10
13186;DHT22;6658;53.080;7.428;2023-09-08T10:02:19;37.90;75.20
13186;DHT22;6658;53.080;7.428;2023-09-08T10:04:48;38.20;76.40
13186;DHT22;6658;53.080;7.428;2023-09-08T10:07:16;38.90;71.80
13186;DHT22;6658;53.080;7.428;2023-09-08T10:09:42;38.70;74.80
13186;DHT22;6658;53.080;7.428;2023-09-08T10:12:09;38.70;70.20
13186;DHT22;6658;53.080;7.428;2023-09-08T10:14:41;37.60;74.10
13186;DHT22;6658;53.080;7.428;2023-09-08T10:17:12;38.00;76.10
13186;DHT22;6658;53.080;7.428;2023-09-08T10:19:42;37.50;70.60
13186;DHT22;6658;53.080;7.428;2023-09-08T10:22:12;37.60;75.60
13186;DHT22;6658;53.080;7.428;2023-09-08T10:24:41;38.30;72.60
13186;DHT22;6658;53.080;7.428;2023-09-08T10:27:10;38.90;72.10
13186;DHT22;6658;53.080;7.428;2023-09-08T10:29:37;38.60;71.00
13186;DHT22;6658;53.080;7.428;2023-09-08T10:32:04;38.80;70.00
13186;DHT22;6658;53.080;7.428;2023-09-08T10:34:32;39.10;69.70
13186;DHT22;6658;53.080;7.428;2023-09-08T10:36:58;37.60;69.00
13186;DHT22;6658;53.080;7.428;2023-09-08T10:39:34;36.30;73.20
13186;DHT22;6658;53.080;7.428;2023-09-08T10:44:59;33.70;80.90
13186;DHT22;6658;53.080;7.428;2023-09-08T10:47:32;32.60;85.60
13186;DHT22;6658;53.080;7.428;2023-09-08T10:49:59;32.10;84.70
13186;DHT22;6658;53.080;7.428;2023-09-08T10:52:25;31.90;86.50
13186;DHT22;6658;53.080;7.428;2023-09-08T10:54:53;31.50;87.10
13186;DHT22;6658;53.080;7.428;2023-09-08T10:57:27;31.50;89.70
13186;DHT22;6658;53.080;7.428;2023-09-08T10:59:54;31.90;91.60
13186;DHT22;6658;53.080;7.428;2023-09-08T11:05:09;31.20;93.00
13186;DHT22;6658;53.080;7.428;2023-09-08T11:07:38;30.50;92.70
13186;DHT22;6658;53.080;7.428;2023-09-08T11:10:05;30.10;93.50
13186;DHT22;6658;53.080;7.428;2023-09-08T11:12:31;29.80;93.90
13186;DHT22;6658;53.080;7.428;2023-09-08T11:14:58;29.60;95.40
13186;DHT22;6658;53.080;7.428;2023-09-08T11:17:30;29.40;94.80
13186;DHT22;6658;53.080;7.428;2023-09-08T11:19:56;29.30;95.50
13186;DHT22;6658;53.080;7.428;2023-09-08T11:22:24;29.30;95.50
13186;DHT22;6658;53.080;7.428;2023-09-08T11:24:51;29.20;97.10
13186;DHT22;6658;53.080;7.428;2023-09-08T11:27:17;29.40;97.00
13186;DHT22;6658;53.080;7.428;2023-09-08T11:29:44;29.50;97.60
13186;DHT22;6658;53.080;7.428;2023-09-08T11:32:10;29.40;97.90
13186;DHT22;6658;53.080;7.428;2023-09-08T11:34:37;29.20;99.20
13186;DHT22;6658;53.080;7.428;2023-09-08T11:37:11;29.00;99.90
13186;DHT22;6658;53.080;7.428;2023-09-08T11:39:42;29.10;99.90
13186;DHT22;6658;53.080;7.428;2023-09-08T11:42:12;29.10;99.40
13186;DHT22;6658;53.080;7.428;2023-09-08T11:44:38;29.20;99.90
13186;DHT22;6658;53.080;7.428;2023-09-08T11:47:06;29.30;99.40
13186;DHT22;6658;53.080;7.428;2023-09-08T11:49:37;29.40;98.90
13186;DHT22;6658;53.080;7.428;2023-09-08T11:52:03;29.50;99.10
13186;DHT22;6658;53.080;7.428;2023-09-08T11:54:33;29.60;98.70
13186;DHT22;6658;53.080;7.428;2023-09-08T11:57:03;29.50;98.30
13186;DHT22;6658;53.080;7.428;2023-09-08T11:59:32;29.50;98.50
13186;DHT22;6658;53.080;7.428;2023-09-08T12:01:59;29.40;96.20
13186;DHT22;6658;53.080;7.428;2023-09-08T12:04:25;29.50;96.40
13186;DHT22;6658;53.080;7.428;2023-09-08T12:06:54;29.40;95.70
13186;DHT22;6658;53.080;7.428;2023-09-08T12:09:23;29.40;95.90
13186;DHT22;6658;53.080;7.428;2023-09-08T12:11:49;29.50;96.30
13186;DHT22;6658;53.080;7.428;2023-09-08T12:14:15;29.50;97.50
13186;DHT22;6658;53.080;7.428;2023-09-08T12:16:42;29.60;96.30
13186;DHT22;6658;53.080;7.428;2023-09-08T12:19:10;29.70;95.60
13186;DHT22;6658;53.080;7.428;2023-09-08T12:21:59;29.70;97.20
13186;DHT22;6658;53.080;7.428;2023-09-08T12:24:47;29.70;95.80
13186;DHT22;6658;53.080;7.428;2023-09-08T12:27:16;29.70;96.00
13186;DHT22;6658;53.080;7.428;2023-09-08T12:29:52;29.70;96.10
13186;DHT22;6658;53.080;7.428;2023-09-08T12:32:19;29.80;96.30
13186;DHT22;6658;53.080;7.428;2023-09-08T12:34:48;29.80;97.00
13186;DHT22;6658;53.080;7.428;2023-09-08T12:37:13;29.80;96.60
13186;DHT22;6658;53.080;7.428;2023-09-08T12:39:39;29.80;96.10
13186;DHT22;6658;53.080;7.428;2023-09-08T12:42:05;29.80;96.70
13186;DHT22;6658;53.080;7.428;2023-09-08T12:44:31;29.90;96.60
13186;DHT22;6658;53.080;7.428;2023-09-08T12:46:56;29.90;96.10
13186;DHT22;6658;53.080;7.428;2023-09-08T12:49:22;30.00;95.40
13186;DHT22;6658;53.080;7.428;2023-09-08T12:51:48;30.10;95.50
13186;DHT22;6658;53.080;7.428;2023-09-08T12:54:13;30.10;96.00
13186;DHT22;6658;53.080;7.428;2023-09-08T12:56:39;30.20;96.60
13186;DHT22;6658;53.080;7.428;2023-09-08T12:59:05;30.20;96.10
13186;DHT22;6658;53.080;7.428;2023-09-08T13:01:30;30.10;96.10
13186;DHT22;6658;53.080;7.428;2023-09-08T13:03:56;30.20;95.70
13186;DHT22;6658;53.080;7.428;2023-09-08T13:06:22;30.20;94.50
13186;DHT22;6658;53.080;7.428;2023-09-08T13:08:47;30.10;94.20
13186;DHT22;6658;53.080;7.428;2023-09-08T13:11:13;30.20;94.40
13186;DHT22;6658;53.080;7.428;2023-09-08T13:13:38;30.10;94.70
13186;DHT22;6658;53.080;7.428;2023-09-08T13:16:04;30.10;94.30
13186;DHT22;6658;53.080;7.428;2023-09-08T13:18:30;30.10;95.00
13186;DHT22;6658;53.080;7.428;2023-09-08T13:21:01;30.20;95.50
13186;DHT22;6658;53.080;7.428;2023-09-08T13:23:26;30.20;95.40
13186;DHT22;6658;53.080;7.428;2023-09-08T13:25:52;30.30;95.10
13186;DHT22;6658;53.080;7.428;2023-09-08T13:28:18;30.30;94.90
13186;DHT22;6658;53.080;7.428;2023-09-08T13:30:43;30.20;94.60
13186;DHT22;6658;53.080;7.428;2023-09-08T13:33:09;30.10;94.70
13186;DHT22;6658;53.080;7.428;2023-09-08T13:35:35;30.10;95.00
13186;DHT22;6658;53.080;7.428;2023-09-08T13:38:00;30.10;96.20
13186;DHT22;6658;53.080;7.428;2023-09-08T13:40:28;30.10;95.30
13186;DHT22;6658;53.080;7.428;2023-09-08T13:42:54;30.10;96.50
13186;DHT22;6658;53.080;7.428;2023-09-08T13:45:19;30.10;96.80
13186;DHT22;6658;53.080;7.428;2023-09-08T13:47:45;30.10;96.30
13186;DHT22;6658;53.080;7.428;2023-09-08T13:50:11;30.00;95.90
13186;DHT22;6658;53.080;7.428;2023-09-08T13:52:37;30.00;96.40
13186;DHT22;6658;53.080;7.428;2023-09-08T13:55:05;29.90;96.60
13186;DHT22;6658;53.080;7.428;2023-09-08T13:57:31;29.80;96.60
13186;DHT22;6658;53.080;7.428;2023-09-08T13:59:57;29.80;96.20
13186;DHT22;6658;53.080;7.428;2023-09-08T14:02:23;29.80;96.40
13186;DHT22;6658;53.080;7.428;2023-09-08T14:04:48;29.70;95.90
13186;DHT22;6658;53.080;7.428;2023-09-08T14:07:14;29.70;97.50
13186;DHT22;6658;53.080;7.428;2023-09-08T14:09:40;29.70;96.60
13186;DHT22;6658;53.080;7.428;2023-09-08T14:12:06;29.70;97.90
13186;DHT22;6658;53.080;7.428;2023-09-08T14:14:31;29.60;97.20
13186;DHT22;6658;53.080;7.428;2023-09-08T14:16:57;29.60;96.40
13186;DHT22;6658;53.080;7.428;2023-09-08T14:19:23;29.60;95.90
13186;DHT22;6658;53.080;7.428;2023-09-08T14:21:48;29.60;97.00
13186;DHT22;6658;53.080;7.428;2023-09-08T14:24:14;29.60;97.10
13186;DHT22;6658;53.080;7.428;2023-09-08T14:26:40;29.60;96.40
13186;DHT22;6658;53.080;7.428;2023-09-08T14:29:05;29.60;96.80
13186;DHT22;6658;53.080;7.428;2023-09-08T14:31:31;29.60;97.60
13186;DHT22;6658;53.080;7.428;2023-09-08T14:33:57;29.60;96.50
13186;DHT22;6658;53.080;7.428;2023-09-08T14:36:23;29.50;96.90
13186;DHT22;6658;53.080;7.428;2023-09-08T14:38:49;29.50;96.20
13186;DHT22;6658;53.080;7.428;2023-09-08T14:41:15;29.50;96.20
13186;DHT22;6658;53.080;7.428;2023-09-08T14:43:41;29.50;95.60
13186;DHT22;6658;53.080;7.428;2023-09-08T14:46:07;29.50;96.20
13186;DHT22;6658;53.080;7.428;2023-09-08T14:48:33;29.50;96.80
13186;DHT22;6658;53.080;7.428;2023-09-08T14:51:00;29.50;96.30
13186;DHT22;6658;53.080;7.428;2023-09-08T14:53:26;29.50;96.30
13186;DHT22;6658;53.080;7.428;2023-09-08T14:55:54;29.50;95.70
13186;DHT22;6658;53.080;7.428;2023-09-08T14:58:23;29.50;95.40
13186;DHT22;6658;53.080;7.428;2023-09-08T15:00:48;29.50;93.40
13186;DHT22;6658;53.080;7.428;2023-09-08T15:03:14;29.50;93.80
13186;DHT22;6658;53.080;7.428;2023-09-08T15:05:40;29.50;94.00
13186;DHT22;6658;53.080;7.428;2023-09-08T15:08:08;29.50;93.40
13186;DHT22;6658;53.080;7.428;2023-09-08T15:10:34;29.50;93.60
13186;DHT22;6658;53.080;7.428;2023-09-08T15:13:00;29.50;93.90
13186;DHT22;6658;53.080;7.428;2023-09-08T15:15:25;29.50;93.50
13186;DHT22;6658;53.080;7.428;2023-09-08T15:17:55;29.50;94.80
13186;DHT22;6658;53.080;7.428;2023-09-08T15:20:24;29.40;94.60
13186;DHT22;6658;53.080;7.428;2023-09-08T15:22:49;29.40;95.40
13186;DHT22;6658;53.080;7.428;2023-09-08T15:25:15;29.40;94.50
13186;DHT22;6658;53.080;7.428;2023-09-08T15:27:41;29.30;94.00
13186;DHT22;6658;53.080;7.428;2023-09-08T15:30:08;29.30;93.40
13186;DHT22;6658;53.080;7.428;2023-09-08T15:32:34;29.30;93.90
13186;DHT22;6658;53.080;7.428;2023-09-08T15:35:01;29.30;94.20
13186;DHT22;6658;53.080;7.428;2023-09-08T15:37:28;29.20;94.30
13186;DHT22;6658;53.080;7.428;2023-09-08T15:39:54;29.20;92.60
13186;DHT22;6658;53.080;7.428;2023-09-08T15:42:19;29.20;92.20
13186;DHT22;6658;53.080;7.428;2023-09-08T15:44:45;29.20;92.30
13186;DHT22;6658;53.080;7.428;2023-09-08T15:47:11;29.20;91.90
13186;DHT22;6658;53.080;7.428;2023-09-08T15:49:36;29.20;92.30
13186;DHT22;6658;53.080;7.428;2023-09-08T15:52:02;29.10;92.30